sensor_id;sensor_type;location;lat;lon;timestamp;P1;durP1;ratioP1;P2;durP2;ratioP2
74492;SDS011;62978;51.094;-115.362;2022-10-16T00:01:40;1.70;;;1.00;;
74492;SDS011;62978;51.094;-115.362;2022-10-16T00:04:08;1.80;;;1.20;;
74492;SDS011;62978;51.094;-115.362;2022-10-16T00:06:36;2.70;;;1.20;;
74492;SDS011;62978;51.094;-115.362;2022-10-16T00:09:04;3.40;;;1.90;;
74492;SDS011;62978;51.094;-115.362;2022-10-16T00:11:34;7.10;;;3.20;;
74492;SDS011;62978;51.094;-115.362;2022-10-16T00:14:06;7.60;;;3.20;;
74492;SDS011;62978;51.094;-115.362;2022-10-16T00:16:37;6.80;;;2.70;;
74492;SDS011;62978;51.094;-115.362;2022-10-16T00:19:05;5.20;;;2.10;;
74492;SDS011;62978;51.094;-115.362;2022-10-16T00:21:33;6.80;;;2.00;;
74492;SDS011;62978;51.094;-115.362;2022-10-16T00:24:04;6.00;;;2.40;;
74492;SDS011;62978;51.094;-115.362;2022-10-16T00:26:35;7.00;;;2.10;;
74492;SDS011;62978;51.094;-115.362;2022-10-16T00:29:04;6.40;;;2.40;;
74492;SDS011;62978;51.094;-115.362;2022-10-16T00:31:33;5.50;;;1.90;;
74492;SDS011;62978;51.094;-115.362;2022-10-16T00:34:01;5.60;;;1.80;;
74492;SDS011;62978;51.094;-115.362;2022-10-16T00:36:28;4.90;;;1.50;;
74492;SDS011;62978;51.094;-115.362;2022-10-16T00:38:57;6.20;;;2.30;;
74492;SDS011;62978;51.094;-115.362;2022-10-16T00:41:27;5.70;;;1.90;;
74492;SDS011;62978;51.094;-115.362;2022-10-16T00:43:57;7.70;;;2.20;;
74492;SDS011;62978;51.094;-115.362;2022-10-16T00:49:10;7.70;;;2.80;;
74492;SDS011;62978;51.094;-115.362;2022-10-16T00:51:53;5.40;;;2.20;;
74492;SDS011;62978;51.094;-115.362;2022-10-16T00:54:27;4.20;;;2.10;;
74492;SDS011;62978;51.094;-115.362;2022-10-16T00:56:58;4.50;;;2.20;;
74492;SDS011;62978;51.094;-115.362;2022-10-16T00:59:41;4.20;;;1.70;;
74492;SDS011;62978;51.094;-115.362;2022-10-16T01:02:12;5.40;;;2.00;;
74492;SDS011;62978;51.094;-115.362;2022-10-16T01:04:51;4.80;;;2.30;;
74492;SDS011;62978;51.094;-115.362;2022-10-16T01:10:39;8.90;;;4.20;;
74492;SDS011;62978;51.094;-115.362;2022-10-16T01:13:09;11.90;;;4.50;;
74492;SDS011;62978;51.094;-115.362;2022-10-16T01:16:07;11.90;;;5.60;;
74492;SDS011;62978;51.094;-115.362;2022-10-16T01:19:09;9.60;;;5.90;;
74492;SDS011;62978;51.094;-115.362;2022-10-16T01:21:48;10.00;;;5.80;;
74492;SDS011;62978;51.094;-115.362;2022-10-16T01:29:52;12.30;;;7.20;;
74492;SDS011;62978;51.094;-115.362;2022-10-16T01:32:31;10.70;;;5.40;;
74492;SDS011;62978;51.094;-115.362;2022-10-16T01:40:48;9.60;;;4.90;;
74492;SDS011;62978;51.094;-115.362;2022-10-16T01:43:28;22.20;;;10.90;;
74492;SDS011;62978;51.094;-115.362;2022-10-16T01:46:01;21.70;;;11.60;;
74492;SDS011;62978;51.094;-115.362;2022-10-16T01:48:30;22.60;;;11.90;;
74492;SDS011;62978;51.094;-115.362;2022-10-16T01:51:12;22.20;;;12.50;;
74492;SDS011;62978;51.094;-115.362;2022-10-16T01:53:43;19.30;;;11.10;;
74492;SDS011;62978;51.094;-115.362;2022-10-16T01:56:17;12.30;;;6.80;;
74492;SDS011;62978;51.094;-115.362;2022-10-16T01:58:51;11.80;;;5.40;;
74492;SDS011;62978;51.094;-115.362;2022-10-16T02:01:27;12.80;;;5.40;;
74492;SDS011;62978;51.094;-115.362;2022-10-16T02:04:04;10.50;;;4.60;;
74492;SDS011;62978;51.094;-115.362;2022-10-16T02:06:53;13.00;;;4.60;;
74492;SDS011;62978;51.094;-115.362;2022-10-16T02:09:21;10.40;;;4.40;;
74492;SDS011;62978;51.094;-115.362;2022-10-16T02:11:51;11.00;;;4.50;;
74492;SDS011;62978;51.094;-115.362;2022-10-16T02:14:22;7.20;;;3.60;;
74492;SDS011;62978;51.094;-115.362;2022-10-16T02:16:50;5.20;;;2.50;;
74492;SDS011;62978;51.094;-115.362;2022-10-16T02:19:19;4.90;;;2.30;;
74492;SDS011;62978;51.094;-115.362;2022-10-16T02:22:01;5.70;;;1.90;;
74492;SDS011;62978;51.094;-115.362;2022-10-16T02:24:56;4.70;;;2.00;;
74492;SDS011;62978;51.094;-115.362;2022-10-16T02:28:00;6.20;;;2.00;;
74492;SDS011;62978;51.094;-115.362;2022-10-16T02:30:36;7.30;;;3.90;;
74492;SDS011;62978;51.094;-115.362;2022-10-16T02:33:18;7.10;;;3.30;;
74492;SDS011;62978;51.094;-115.362;2022-10-16T02:35:49;6.70;;;3.50;;
74492;SDS011;62978;51.094;-115.362;2022-10-16T02:38:20;8.90;;;3.20;;
74492;SDS011;62978;51.094;-115.362;2022-10-16T02:40:53;6.00;;;2.80;;
74492;SDS011;62978;51.094;-115.362;2022-10-16T02:43:22;5.50;;;2.30;;
74492;SDS011;62978;51.094;-115.362;2022-10-16T02:45:51;5.40;;;2.60;;
74492;SDS011;62978;51.094;-115.362;2022-10-16T02:48:19;7.30;;;3.40;;
74492;SDS011;62978;51.094;-115.362;2022-10-16T02:50:47;6.00;;;2.80;;
74492;SDS011;62978;51.094;-115.362;2022-10-16T02:53:14;6.70;;;2.80;;
74492;SDS011;62978;51.094;-115.362;2022-10-16T02:55:42;5.50;;;2.90;;
74492;SDS011;62978;51.094;-115.362;2022-10-16T02:58:10;5.00;;;2.80;;
74492;SDS011;62978;51.094;-115.362;2022-10-16T03:00:37;5.90;;;3.10;;
74492;SDS011;62978;51.094;-115.362;2022-10-16T03:03:05;5.40;;;2.70;;
74492;SDS011;62978;51.094;-115.362;2022-10-16T03:05:33;6.50;;;3.10;;
74492;SDS011;62978;51.094;-115.362;2022-10-16T03:08:00;5.90;;;3.20;;
74492;SDS011;62978;51.094;-115.362;2022-10-16T03:10:28;6.80;;;3.10;;
74492;SDS011;62978;51.094;-115.362;2022-10-16T03:12:56;5.30;;;2.90;;
74492;SDS011;62978;51.094;-115.362;2022-10-16T03:15:25;5.80;;;3.10;;
74492;SDS011;62978;51.094;-115.362;2022-10-16T03:17:54;6.00;;;2.80;;
74492;SDS011;62978;51.094;-115.362;2022-10-16T03:20:25;6.30;;;2.60;;
74492;SDS011;62978;51.094;-115.362;2022-10-16T03:22:53;7.10;;;2.70;;
74492;SDS011;62978;51.094;-115.362;2022-10-16T03:25:20;6.60;;;2.30;;
74492;SDS011;62978;51.094;-115.362;2022-10-16T03:27:48;5.30;;;2.40;;
74492;SDS011;62978;51.094;-115.362;2022-10-16T03:30:15;6.10;;;3.00;;
74492;SDS011;62978;51.094;-115.362;2022-10-16T03:32:46;5.70;;;2.40;;
74492;SDS011;62978;51.094;-115.362;2022-10-16T03:35:13;5.30;;;2.80;;
74492;SDS011;62978;51.094;-115.362;2022-10-16T03:37:41;7.60;;;3.20;;
74492;SDS011;62978;51.094;-115.362;2022-10-16T03:40:09;6.10;;;3.70;;
74492;SDS011;62978;51.094;-115.362;2022-10-16T03:42:37;9.80;;;4.30;;
74492;SDS011;62978;51.094;-115.362;2022-10-16T03:45:05;7.70;;;3.90;;
74492;SDS011;62978;51.094;-115.362;2022-10-16T03:47:33;7.60;;;3.60;;
74492;SDS011;62978;51.094;-115.362;2022-10-16T03:50:01;7.50;;;3.80;;
74492;SDS011;62978;51.094;-115.362;2022-10-16T03:52:29;7.40;;;3.50;;
74492;SDS011;62978;51.094;-115.362;2022-10-16T03:55:05;6.00;;;3.10;;
74492;SDS011;62978;51.094;-115.362;2022-10-16T03:57:34;8.50;;;3.10;;
74492;SDS011;62978;51.094;-115.362;2022-10-16T04:00:02;8.20;;;3.70;;
74492;SDS011;62978;51.094;-115.362;2022-10-16T04:02:30;6.60;;;3.20;;
74492;SDS011;62978;51.094;-115.362;2022-10-16T04:04:58;6.70;;;3.00;;
74492;SDS011;62978;51.094;-115.362;2022-10-16T04:07:26;7.60;;;3.60;;
74492;SDS011;62978;51.094;-115.362;2022-10-16T04:09:56;5.30;;;2.40;;
74492;SDS011;62978;51.094;-115.362;2022-10-16T04:12:27;5.10;;;2.10;;
74492;SDS011;62978;51.094;-115.362;2022-10-16T04:14:55;5.30;;;2.30;;
74492;SDS011;62978;51.094;-115.362;2022-10-16T04:17:22;9.40;;;3.60;;
74492;SDS011;62978;51.094;-115.362;2022-10-16T04:19:50;6.60;;;3.10;;
74492;SDS011;62978;51.094;-115.362;2022-10-16T04:22:18;6.50;;;3.10;;
74492;SDS011;62978;51.094;-115.362;2022-10-16T04:24:46;6.10;;;2.80;;
74492;SDS011;62978;51.094;-115.362;2022-10-16T04:27:13;5.30;;;2.70;;
74492;SDS011;62978;51.094;-115.362;2022-10-16T04:29:41;4.60;;;2.20;;
74492;SDS011;62978;51.094;-115.362;2022-10-16T04:32:09;6.30;;;2.30;;
74492;SDS011;62978;51.094;-115.362;2022-10-16T04:34:38;5.80;;;2.20;;
74492;SDS011;62978;51.094;-115.362;2022-10-16T04:37:06;7.10;;;2.80;;
74492;SDS011;62978;51.094;-115.362;2022-10-16T04:39:35;7.60;;;3.10;;
74492;SDS011;62978;51.094;-115.362;2022-10-16T04:42:02;9.70;;;3.60;;
74492;SDS011;62978;51.094;-115.362;2022-10-16T04:44:30;7.90;;;3.30;;
74492;SDS011;62978;51.094;-115.362;2022-10-16T04:46:58;7.60;;;3.10;;
74492;SDS011;62978;51.094;-115.362;2022-10-16T04:49:28;9.60;;;3.40;;
74492;SDS011;62978;51.094;-115.362;2022-10-16T04:51:56;8.90;;;3.40;;
74492;SDS011;62978;51.094;-115.362;2022-10-16T04:54:23;11.20;;;4.00;;
74492;SDS011;62978;51.094;-115.362;2022-10-16T04:56:50;14.40;;;5.10;;
74492;SDS011;62978;51.094;-115.362;2022-10-16T04:59:19;12.20;;;4.20;;
74492;SDS011;62978;51.094;-115.362;2022-10-16T05:01:47;13.30;;;4.20;;
74492;SDS011;62978;51.094;-115.362;2022-10-16T05:04:15;12.20;;;4.20;;
74492;SDS011;62978;51.094;-115.362;2022-10-16T05:06:42;12.70;;;4.00;;
74492;SDS011;62978;51.094;-115.362;2022-10-16T05:09:10;14.00;;;4.00;;
74492;SDS011;62978;51.094;-115.362;2022-10-16T05:11:38;9.80;;;3.60;;
74492;SDS011;62978;51.094;-115.362;2022-10-16T05:14:05;9.50;;;3.30;;
74492;SDS011;62978;51.094;-115.362;2022-10-16T05:16:32;8.60;;;3.00;;
74492;SDS011;62978;51.094;-115.362;2022-10-16T05:19:00;7.10;;;2.20;;
74492;SDS011;62978;51.094;-115.362;2022-10-16T05:21:27;6.90;;;2.20;;
74492;SDS011;62978;51.094;-115.362;2022-10-16T05:23:54;8.80;;;3.30;;
74492;SDS011;62978;51.094;-115.362;2022-10-16T05:26:22;9.60;;;3.20;;
74492;SDS011;62978;51.094;-115.362;2022-10-16T05:28:50;8.60;;;2.80;;
74492;SDS011;62978;51.094;-115.362;2022-10-16T05:31:17;8.50;;;2.60;;
74492;SDS011;62978;51.094;-115.362;2022-10-16T05:33:44;7.10;;;2.40;;
74492;SDS011;62978;51.094;-115.362;2022-10-16T05:36:11;8.20;;;2.50;;
74492;SDS011;62978;51.094;-115.362;2022-10-16T05:38:39;8.70;;;2.90;;
74492;SDS011;62978;51.094;-115.362;2022-10-16T05:41:06;9.70;;;2.70;;
74492;SDS011;62978;51.094;-115.362;2022-10-16T05:43:34;8.00;;;3.00;;
74492;SDS011;62978;51.094;-115.362;2022-10-16T05:46:04;6.30;;;2.20;;
74492;SDS011;62978;51.094;-115.362;2022-10-16T05:48:32;6.40;;;2.00;;
74492;SDS011;62978;51.094;-115.362;2022-10-16T05:51:05;5.60;;;1.80;;
74492;SDS011;62978;51.094;-115.362;2022-10-16T05:53:35;9.30;;;2.10;;
74492;SDS011;62978;51.094;-115.362;2022-10-16T05:56:05;9.00;;;1.60;;
74492;SDS011;62978;51.094;-115.362;2022-10-16T05:58:37;6.00;;;1.60;;
74492;SDS011;62978;51.094;-115.362;2022-10-16T06:01:12;4.30;;;1.40;;
74492;SDS011;62978;51.094;-115.362;2022-10-16T06:03:41;6.60;;;1.60;;
74492;SDS011;62978;51.094;-115.362;2022-10-16T06:06:11;4.70;;;1.70;;
74492;SDS011;62978;51.094;-115.362;2022-10-16T06:08:41;3.90;;;1.70;;
74492;SDS011;62978;51.094;-115.362;2022-10-16T06:11:11;4.00;;;1.50;;
74492;SDS011;62978;51.094;-115.362;2022-10-16T06:13:44;3.90;;;1.30;;
74492;SDS011;62978;51.094;-115.362;2022-10-16T06:16:13;2.60;;;0.80;;
74492;SDS011;62978;51.094;-115.362;2022-10-16T06:18:40;3.80;;;1.10;;
74492;SDS011;62978;51.094;-115.362;2022-10-16T06:21:12;2.30;;;0.80;;
74492;SDS011;62978;51.094;-115.362;2022-10-16T06:23:43;3.20;;;0.90;;
74492;SDS011;62978;51.094;-115.362;2022-10-16T06:26:16;4.10;;;1.50;;
74492;SDS011;62978;51.094;-115.362;2022-10-16T06:28:45;1.60;;;0.70;;
74492;SDS011;62978;51.094;-115.362;2022-10-16T06:31:13;5.40;;;1.10;;
74492;SDS011;62978;51.094;-115.362;2022-10-16T06:33:41;3.10;;;0.90;;
74492;SDS011;62978;51.094;-115.362;2022-10-16T06:36:14;3.00;;;1.10;;
74492;SDS011;62978;51.094;-115.362;2022-10-16T06:38:43;3.70;;;1.40;;
74492;SDS011;62978;51.094;-115.362;2022-10-16T06:41:15;4.40;;;1.30;;
74492;SDS011;62978;51.094;-115.362;2022-10-16T06:43:46;2.20;;;0.90;;
74492;SDS011;62978;51.094;-115.362;2022-10-16T06:46:18;2.40;;;1.10;;
74492;SDS011;62978;51.094;-115.362;2022-10-16T06:48:47;3.10;;;0.80;;
74492;SDS011;62978;51.094;-115.362;2022-10-16T06:51:22;4.20;;;1.50;;
74492;SDS011;62978;51.094;-115.362;2022-10-16T06:53:55;3.70;;;0.90;;
74492;SDS011;62978;51.094;-115.362;2022-10-16T06:56:27;3.30;;;1.10;;
74492;SDS011;62978;51.094;-115.362;2022-10-16T06:58:56;2.50;;;1.10;;
74492;SDS011;62978;51.094;-115.362;2022-10-16T07:01:24;2.90;;;0.90;;
74492;SDS011;62978;51.094;-115.362;2022-10-16T07:03:52;2.00;;;0.90;;
74492;SDS011;62978;51.094;-115.362;2022-10-16T07:06:22;1.80;;;0.70;;
74492;SDS011;62978;51.094;-115.362;2022-10-16T07:08:51;2.70;;;0.70;;
74492;SDS011;62978;51.094;-115.362;2022-10-16T07:11:20;3.10;;;1.20;;
74492;SDS011;62978;51.094;-115.362;2022-10-16T07:13:51;2.60;;;0.90;;
74492;SDS011;62978;51.094;-115.362;2022-10-16T07:16:20;2.90;;;1.10;;
74492;SDS011;62978;51.094;-115.362;2022-10-16T07:18:56;4.20;;;1.00;;
74492;SDS011;62978;51.094;-115.362;2022-10-16T07:21:27;1.50;;;0.70;;
74492;SDS011;62978;51.094;-115.362;2022-10-16T07:23:57;2.10;;;1.00;;
74492;SDS011;62978;51.094;-115.362;2022-10-16T07:26:28;3.00;;;0.90;;
74492;SDS011;62978;51.094;-115.362;2022-10-16T07:28:57;2.60;;;1.00;;
74492;SDS011;62978;51.094;-115.362;2022-10-16T07:31:23;2.60;;;0.70;;
74492;SDS011;62978;51.094;-115.362;2022-10-16T07:33:51;3.80;;;1.00;;
74492;SDS011;62978;51.094;-115.362;2022-10-16T07:36:19;4.20;;;1.00;;
74492;SDS011;62978;51.094;-115.362;2022-10-16T07:38:47;2.70;;;0.90;;
74492;SDS011;62978;51.094;-115.362;2022-10-16T07:41:17;2.00;;;1.00;;
74492;SDS011;62978;51.094;-115.362;2022-10-16T07:43:49;4.30;;;1.10;;
74492;SDS011;62978;51.094;-115.362;2022-10-16T07:46:19;5.00;;;1.20;;
74492;SDS011;62978;51.094;-115.362;2022-10-16T07:48:48;2.50;;;1.10;;
74492;SDS011;62978;51.094;-115.362;2022-10-16T07:51:18;2.20;;;0.70;;
74492;SDS011;62978;51.094;-115.362;2022-10-16T07:53:47;2.40;;;1.00;;
74492;SDS011;62978;51.094;-115.362;2022-10-16T07:56:16;3.70;;;1.00;;
74492;SDS011;62978;51.094;-115.362;2022-10-16T07:58:44;2.90;;;0.90;;
74492;SDS011;62978;51.094;-115.362;2022-10-16T08:01:14;2.50;;;1.10;;
74492;SDS011;62978;51.094;-115.362;2022-10-16T08:03:44;2.80;;;1.00;;
74492;SDS011;62978;51.094;-115.362;2022-10-16T08:06:12;5.00;;;1.30;;
74492;SDS011;62978;51.094;-115.362;2022-10-16T08:08:39;2.60;;;1.00;;
74492;SDS011;62978;51.094;-115.362;2022-10-16T08:11:06;3.20;;;1.10;;
74492;SDS011;62978;51.094;-115.362;2022-10-16T08:13:34;3.60;;;1.00;;
74492;SDS011;62978;51.094;-115.362;2022-10-16T08:16:01;4.70;;;1.10;;
74492;SDS011;62978;51.094;-115.362;2022-10-16T08:18:34;3.70;;;1.20;;
74492;SDS011;62978;51.094;-115.362;2022-10-16T08:21:03;2.40;;;1.20;;
74492;SDS011;62978;51.094;-115.362;2022-10-16T08:23:32;2.90;;;1.30;;
74492;SDS011;62978;51.094;-115.362;2022-10-16T08:26:05;4.20;;;1.40;;
74492;SDS011;62978;51.094;-115.362;2022-10-16T08:28:34;3.00;;;1.20;;
74492;SDS011;62978;51.094;-115.362;2022-10-16T08:31:13;3.60;;;1.00;;
74492;SDS011;62978;51.094;-115.362;2022-10-16T08:33:43;2.00;;;0.70;;
74492;SDS011;62978;51.094;-115.362;2022-10-16T08:36:13;3.00;;;0.80;;
74492;SDS011;62978;51.094;-115.362;2022-10-16T08:38:41;4.20;;;1.10;;
74492;SDS011;62978;51.094;-115.362;2022-10-16T08:44:57;2.20;;;0.90;;
74492;SDS011;62978;51.094;-115.362;2022-10-16T08:50:38;3.20;;;0.90;;
74492;SDS011;62978;51.094;-115.362;2022-10-16T08:53:09;4.70;;;1.20;;
74492;SDS011;62978;51.094;-115.362;2022-10-16T08:55:59;2.60;;;0.80;;
74492;SDS011;62978;51.094;-115.362;2022-10-16T08:58:29;2.20;;;1.10;;
74492;SDS011;62978;51.094;-115.362;2022-10-16T09:01:00;3.00;;;1.10;;
74492;SDS011;62978;51.094;-115.362;2022-10-16T09:07:14;2.00;;;0.90;;
74492;SDS011;62978;51.094;-115.362;2022-10-16T09:10:01;2.50;;;0.70;;
74492;SDS011;62978;51.094;-115.362;2022-10-16T09:19:49;3.50;;;1.30;;
74492;SDS011;62978;51.094;-115.362;2022-10-16T09:22:22;3.00;;;1.10;;
74492;SDS011;62978;51.094;-115.362;2022-10-16T09:25:00;1.70;;;0.80;;
74492;SDS011;62978;51.094;-115.362;2022-10-16T09:27:58;2.40;;;0.90;;
74492;SDS011;62978;51.094;-115.362;2022-10-16T09:30:28;2.40;;;0.70;;
74492;SDS011;62978;51.094;-115.362;2022-10-16T09:32:58;2.30;;;0.80;;
74492;SDS011;62978;51.094;-115.362;2022-10-16T09:35:53;3.70;;;0.70;;
74492;SDS011;62978;51.094;-115.362;2022-10-16T09:38:41;1.60;;;0.70;;
74492;SDS011;62978;51.094;-115.362;2022-10-16T09:41:22;2.10;;;0.90;;
74492;SDS011;62978;51.094;-115.362;2022-10-16T09:46:30;1.80;;;0.80;;
74492;SDS011;62978;51.094;-115.362;2022-10-16T09:49:23;1.60;;;0.80;;
74492;SDS011;62978;51.094;-115.362;2022-10-16T09:52:13;2.00;;;0.60;;
74492;SDS011;62978;51.094;-115.362;2022-10-16T09:55:01;2.30;;;1.00;;
74492;SDS011;62978;51.094;-115.362;2022-10-16T09:57:59;2.00;;;0.80;;
74492;SDS011;62978;51.094;-115.362;2022-10-16T10:00:26;2.20;;;0.80;;
74492;SDS011;62978;51.094;-115.362;2022-10-16T10:02:55;3.30;;;1.00;;
74492;SDS011;62978;51.094;-115.362;2022-10-16T10:05:27;4.40;;;1.10;;
74492;SDS011;62978;51.094;-115.362;2022-10-16T10:07:57;2.40;;;1.10;;
74492;SDS011;62978;51.094;-115.362;2022-10-16T10:10:30;3.40;;;1.10;;
74492;SDS011;62978;51.094;-115.362;2022-10-16T10:13:00;2.00;;;0.90;;
74492;SDS011;62978;51.094;-115.362;2022-10-16T10:15:33;2.60;;;1.10;;
74492;SDS011;62978;51.094;-115.362;2022-10-16T10:18:02;3.50;;;1.00;;
74492;SDS011;62978;51.094;-115.362;2022-10-16T10:20:42;2.90;;;1.10;;
74492;SDS011;62978;51.094;-115.362;2022-10-16T10:23:26;4.70;;;1.00;;
74492;SDS011;62978;51.094;-115.362;2022-10-16T10:29:06;2.30;;;0.90;;
74492;SDS011;62978;51.094;-115.362;2022-10-16T10:32:09;2.00;;;0.90;;
74492;SDS011;62978;51.094;-115.362;2022-10-16T10:35:01;2.30;;;1.00;;
74492;SDS011;62978;51.094;-115.362;2022-10-16T10:38:00;2.40;;;0.80;;
74492;SDS011;62978;51.094;-115.362;2022-10-16T10:43:49;1.60;;;0.80;;
74492;SDS011;62978;51.094;-115.362;2022-10-16T10:46:32;3.50;;;1.00;;
74492;SDS011;62978;51.094;-115.362;2022-10-16T10:52:28;1.80;;;0.90;;
74492;SDS011;62978;51.094;-115.362;2022-10-16T11:02:16;2.10;;;0.80;;
74492;SDS011;62978;51.094;-115.362;2022-10-16T11:11:20;2.00;;;0.80;;
74492;SDS011;62978;51.094;-115.362;2022-10-16T11:14:22;2.30;;;0.90;;
74492;SDS011;62978;51.094;-115.362;2022-10-16T11:17:11;1.90;;;0.80;;
74492;SDS011;62978;51.094;-115.362;2022-10-16T11:19:49;2.60;;;1.00;;
74492;SDS011;62978;51.094;-115.362;2022-10-16T11:22:42;3.30;;;0.70;;
74492;SDS011;62978;51.094;-115.362;2022-10-16T11:25:29;2.40;;;0.80;;
74492;SDS011;62978;51.094;-115.362;2022-10-16T11:28:19;2.60;;;1.00;;
74492;SDS011;62978;51.094;-115.362;2022-10-16T11:37:19;1.90;;;0.70;;
74492;SDS011;62978;51.094;-115.362;2022-10-16T11:39:52;1.40;;;0.60;;
74492;SDS011;62978;51.094;-115.362;2022-10-16T11:42:37;2.70;;;0.90;;
74492;SDS011;62978;51.094;-115.362;2022-10-16T11:45:32;2.90;;;1.00;;
74492;SDS011;62978;51.094;-115.362;2022-10-16T11:56:59;4.30;;;1.20;;
74492;SDS011;62978;51.094;-115.362;2022-10-16T12:00:08;2.50;;;0.80;;
74492;SDS011;62978;51.094;-115.362;2022-10-16T12:03:00;3.00;;;1.10;;
74492;SDS011;62978;51.094;-115.362;2022-10-16T12:08:51;2.60;;;0.90;;
74492;SDS011;62978;51.094;-115.362;2022-10-16T12:17:22;1.60;;;0.80;;
74492;SDS011;62978;51.094;-115.362;2022-10-16T12:22:50;2.40;;;0.90;;
74492;SDS011;62978;51.094;-115.362;2022-10-16T12:30:51;1.80;;;0.80;;
74492;SDS011;62978;51.094;-115.362;2022-10-16T12:36:06;3.20;;;1.20;;
74492;SDS011;62978;51.094;-115.362;2022-10-16T12:41:30;4.00;;;1.10;;
74492;SDS011;62978;51.094;-115.362;2022-10-16T12:44:23;1.60;;;1.00;;
74492;SDS011;62978;51.094;-115.362;2022-10-16T12:46:52;1.60;;;0.70;;
74492;SDS011;62978;51.094;-115.362;2022-10-16T12:49:31;1.80;;;0.80;;
74492;SDS011;62978;51.094;-115.362;2022-10-16T12:52:04;1.40;;;0.70;;
74492;SDS011;62978;51.094;-115.362;2022-10-16T12:54:38;2.60;;;1.00;;
74492;SDS011;62978;51.094;-115.362;2022-10-16T13:06:26;2.50;;;1.20;;
74492;SDS011;62978;51.094;-115.362;2022-10-16T13:09:08;1.70;;;0.60;;
74492;SDS011;62978;51.094;-115.362;2022-10-16T13:18:00;3.60;;;1.10;;
74492;SDS011;62978;51.094;-115.362;2022-10-16T13:21:03;6.50;;;1.70;;
74492;SDS011;62978;51.094;-115.362;2022-10-16T13:24:02;2.90;;;0.90;;
74492;SDS011;62978;51.094;-115.362;2022-10-16T13:29:54;2.30;;;1.10;;
74492;SDS011;62978;51.094;-115.362;2022-10-16T13:32:29;3.20;;;0.90;;
74492;SDS011;62978;51.094;-115.362;2022-10-16T13:34:57;2.10;;;0.80;;
74492;SDS011;62978;51.094;-115.362;2022-10-16T13:37:26;2.50;;;0.80;;
74492;SDS011;62978;51.094;-115.362;2022-10-16T13:40:17;1.70;;;0.80;;
74492;SDS011;62978;51.094;-115.362;2022-10-16T13:42:47;1.60;;;0.70;;
74492;SDS011;62978;51.094;-115.362;2022-10-16T13:45:20;2.20;;;1.20;;
74492;SDS011;62978;51.094;-115.362;2022-10-16T13:47:48;3.40;;;1.00;;
74492;SDS011;62978;51.094;-115.362;2022-10-16T13:50:17;2.40;;;1.00;;
74492;SDS011;62978;51.094;-115.362;2022-10-16T13:52:45;5.30;;;1.70;;
74492;SDS011;62978;51.094;-115.362;2022-10-16T13:55:17;1.90;;;1.00;;
74492;SDS011;62978;51.094;-115.362;2022-10-16T13:57:45;4.10;;;1.00;;
74492;SDS011;62978;51.094;-115.362;2022-10-16T14:00:21;2.70;;;1.10;;
74492;SDS011;62978;51.094;-115.362;2022-10-16T14:03:01;2.10;;;1.00;;
74492;SDS011;62978;51.094;-115.362;2022-10-16T14:05:34;4.80;;;1.70;;
74492;SDS011;62978;51.094;-115.362;2022-10-16T14:08:01;4.10;;;1.40;;
74492;SDS011;62978;51.094;-115.362;2022-10-16T14:10:31;3.10;;;1.00;;
74492;SDS011;62978;51.094;-115.362;2022-10-16T14:13:07;3.60;;;1.50;;
74492;SDS011;62978;51.094;-115.362;2022-10-16T14:15:49;2.20;;;0.90;;
74492;SDS011;62978;51.094;-115.362;2022-10-16T14:18:21;3.80;;;1.10;;
74492;SDS011;62978;51.094;-115.362;2022-10-16T14:20:51;1.90;;;0.70;;
74492;SDS011;62978;51.094;-115.362;2022-10-16T14:25:46;2.00;;;0.90;;
74492;SDS011;62978;51.094;-115.362;2022-10-16T14:28:21;2.60;;;0.60;;
74492;SDS011;62978;51.094;-115.362;2022-10-16T14:30:54;4.30;;;1.20;;
74492;SDS011;62978;51.094;-115.362;2022-10-16T14:33:31;1.60;;;0.70;;
74492;SDS011;62978;51.094;-115.362;2022-10-16T14:36:18;3.90;;;1.00;;
74492;SDS011;62978;51.094;-115.362;2022-10-16T14:39:17;3.30;;;0.90;;
74492;SDS011;62978;51.094;-115.362;2022-10-16T14:41:49;2.20;;;0.90;;
74492;SDS011;62978;51.094;-115.362;2022-10-16T14:44:19;3.00;;;1.20;;
74492;SDS011;62978;51.094;-115.362;2022-10-16T14:46:53;5.00;;;1.80;;
74492;SDS011;62978;51.094;-115.362;2022-10-16T14:49:21;1.90;;;1.00;;
74492;SDS011;62978;51.094;-115.362;2022-10-16T14:51:50;1.90;;;1.00;;
74492;SDS011;62978;51.094;-115.362;2022-10-16T14:54:18;3.10;;;1.10;;
74492;SDS011;62978;51.094;-115.362;2022-10-16T14:56:50;2.20;;;0.80;;
74492;SDS011;62978;51.094;-115.362;2022-10-16T14:59:39;2.10;;;0.70;;
74492;SDS011;62978;51.094;-115.362;2022-10-16T15:02:31;1.80;;;0.80;;
74492;SDS011;62978;51.094;-115.362;2022-10-16T15:07:45;3.40;;;1.00;;
74492;SDS011;62978;51.094;-115.362;2022-10-16T15:10:13;1.90;;;0.70;;
74492;SDS011;62978;51.094;-115.362;2022-10-16T15:12:41;2.30;;;0.80;;
74492;SDS011;62978;51.094;-115.362;2022-10-16T15:18:06;2.60;;;1.00;;
74492;SDS011;62978;51.094;-115.362;2022-10-16T15:20:35;2.70;;;1.00;;
74492;SDS011;62978;51.094;-115.362;2022-10-16T15:23:06;3.80;;;1.50;;
74492;SDS011;62978;51.094;-115.362;2022-10-16T15:25:51;2.80;;;1.20;;
74492;SDS011;62978;51.094;-115.362;2022-10-16T15:28:21;2.40;;;0.90;;
74492;SDS011;62978;51.094;-115.362;2022-10-16T15:30:52;2.70;;;1.10;;
74492;SDS011;62978;51.094;-115.362;2022-10-16T15:33:22;2.50;;;0.80;;
74492;SDS011;62978;51.094;-115.362;2022-10-16T15:35:54;2.00;;;0.80;;
74492;SDS011;62978;51.094;-115.362;2022-10-16T15:38:22;1.80;;;0.80;;
74492;SDS011;62978;51.094;-115.362;2022-10-16T15:40:50;1.50;;;0.60;;
74492;SDS011;62978;51.094;-115.362;2022-10-16T15:43:17;3.00;;;0.80;;
74492;SDS011;62978;51.094;-115.362;2022-10-16T15:45:58;2.10;;;0.70;;
74492;SDS011;62978;51.094;-115.362;2022-10-16T15:48:32;2.10;;;0.90;;
74492;SDS011;62978;51.094;-115.362;2022-10-16T15:51:00;3.30;;;0.80;;
74492;SDS011;62978;51.094;-115.362;2022-10-16T15:53:32;1.50;;;0.60;;
74492;SDS011;62978;51.094;-115.362;2022-10-16T15:56:08;2.70;;;1.00;;
74492;SDS011;62978;51.094;-115.362;2022-10-16T15:58:37;2.10;;;0.60;;
74492;SDS011;62978;51.094;-115.362;2022-10-16T16:01:05;2.40;;;1.20;;
74492;SDS011;62978;51.094;-115.362;2022-10-16T16:03:33;4.50;;;0.90;;
74492;SDS011;62978;51.094;-115.362;2022-10-16T16:06:06;2.10;;;1.10;;
74492;SDS011;62978;51.094;-115.362;2022-10-16T16:08:36;4.80;;;1.30;;
74492;SDS011;62978;51.094;-115.362;2022-10-16T16:11:09;1.40;;;0.70;;
74492;SDS011;62978;51.094;-115.362;2022-10-16T16:13:38;2.90;;;0.90;;
74492;SDS011;62978;51.094;-115.362;2022-10-16T16:16:07;4.00;;;0.80;;
74492;SDS011;62978;51.094;-115.362;2022-10-16T16:18:36;2.20;;;0.90;;
74492;SDS011;62978;51.094;-115.362;2022-10-16T16:21:04;3.60;;;1.20;;
74492;SDS011;62978;51.094;-115.362;2022-10-16T16:23:32;5.80;;;1.60;;
74492;SDS011;62978;51.094;-115.362;2022-10-16T16:26:09;4.70;;;1.40;;
74492;SDS011;62978;51.094;-115.362;2022-10-16T16:28:40;3.40;;;1.40;;
74492;SDS011;62978;51.094;-115.362;2022-10-16T16:31:09;2.60;;;0.90;;
74492;SDS011;62978;51.094;-115.362;2022-10-16T16:33:36;3.70;;;0.80;;
74492;SDS011;62978;51.094;-115.362;2022-10-16T16:36:05;2.10;;;0.90;;
74492;SDS011;62978;51.094;-115.362;2022-10-16T16:38:33;4.30;;;1.00;;
74492;SDS011;62978;51.094;-115.362;2022-10-16T16:41:21;3.60;;;0.90;;
74492;SDS011;62978;51.094;-115.362;2022-10-16T16:43:52;1.80;;;0.80;;
74492;SDS011;62978;51.094;-115.362;2022-10-16T16:46:21;2.70;;;1.00;;
74492;SDS011;62978;51.094;-115.362;2022-10-16T16:48:49;2.10;;;1.00;;